sensor_id;sensor_type;location;lat;lon;timestamp;P1;durP1;ratioP1;P2;durP2;ratioP2
54813;SDS011;40714;51.378;-2.348;2023-08-21T00:01:00;2.45;;;1.20;;
54813;SDS011;40714;51.378;-2.348;2023-08-21T00:03:26;2.95;;;0.90;;
54813;SDS011;40714;51.378;-2.348;2023-08-21T00:05:52;4.15;;;1.20;;
54813;SDS011;40714;51.378;-2.348;2023-08-21T00:08:18;1.90;;;1.13;;
54813;SDS011;40714;51.378;-2.348;2023-08-21T00:10:44;2.13;;;1.00;;
54813;SDS011;40714;51.378;-2.348;2023-08-21T00:13:10;1.70;;;1.15;;
54813;SDS011;40714;51.378;-2.348;2023-08-21T00:15:37;3.58;;;1.25;;
54813;SDS011;40714;51.378;-2.348;2023-08-21T00:18:04;2.17;;;1.15;;
54813;SDS011;40714;51.378;-2.348;2023-08-21T00:20:30;1.75;;;1.15;;
54813;SDS011;40714;51.378;-2.348;2023-08-21T00:22:56;2.58;;;1.10;;
54813;SDS011;40714;51.378;-2.348;2023-08-21T00:25:22;2.47;;;1.10;;
54813;SDS011;40714;51.378;-2.348;2023-08-21T00:27:48;2.67;;;1.05;;
54813;SDS011;40714;51.378;-2.348;2023-08-21T00:30:14;2.85;;;1.17;;
54813;SDS011;40714;51.378;-2.348;2023-08-21T00:32:41;1.70;;;1.30;;
54813;SDS011;40714;51.378;-2.348;2023-08-21T00:35:07;2.42;;;1.48;;
54813;SDS011;40714;51.378;-2.348;2023-08-21T00:37:33;4.82;;;2.50;;
54813;SDS011;40714;51.378;-2.348;2023-08-21T00:39:59;2.42;;;1.35;;
54813;SDS011;40714;51.378;-2.348;2023-08-21T00:42:25;3.50;;;1.63;;
54813;SDS011;40714;51.378;-2.348;2023-08-21T00:44:51;4.90;;;1.58;;
54813;SDS011;40714;51.378;-2.348;2023-08-21T00:47:17;3.10;;;1.95;;
54813;SDS011;40714;51.378;-2.348;2023-08-21T00:49:44;3.72;;;1.55;;
54813;SDS011;40714;51.378;-2.348;2023-08-21T00:52:10;3.95;;;1.70;;
54813;SDS011;40714;51.378;-2.348;2023-08-21T00:54:38;3.22;;;1.58;;
54813;SDS011;40714;51.378;-2.348;2023-08-21T00:57:04;3.13;;;1.63;;
54813;SDS011;40714;51.378;-2.348;2023-08-21T00:59:30;2.22;;;1.38;;
54813;SDS011;40714;51.378;-2.348;2023-08-21T01:01:56;3.20;;;1.38;;
54813;SDS011;40714;51.378;-2.348;2023-08-21T01:04:22;3.72;;;1.67;;
54813;SDS011;40714;51.378;-2.348;2023-08-21T01:06:48;2.85;;;1.45;;
54813;SDS011;40714;51.378;-2.348;2023-08-21T01:14:13;2.83;;;1.73;;
54813;SDS011;40714;51.378;-2.348;2023-08-21T01:16:42;5.13;;;1.50;;
54813;SDS011;40714;51.378;-2.348;2023-08-21T01:19:10;1.63;;;1.20;;
54813;SDS011;40714;51.378;-2.348;2023-08-21T01:21:38;1.33;;;1.13;;
54813;SDS011;40714;51.378;-2.348;2023-08-21T01:24:07;2.28;;;1.50;;
54813;SDS011;40714;51.378;-2.348;2023-08-21T01:26:33;5.07;;;2.35;;
54813;SDS011;40714;51.378;-2.348;2023-08-21T01:28:59;3.70;;;2.08;;
54813;SDS011;40714;51.378;-2.348;2023-08-21T01:31:30;4.53;;;1.92;;
54813;SDS011;40714;51.378;-2.348;2023-08-21T01:33:59;3.53;;;1.67;;
54813;SDS011;40714;51.378;-2.348;2023-08-21T01:36:28;4.85;;;1.80;;
54813;SDS011;40714;51.378;-2.348;2023-08-21T01:38:54;3.33;;;1.88;;
54813;SDS011;40714;51.378;-2.348;2023-08-21T01:41:23;3.85;;;2.38;;
54813;SDS011;40714;51.378;-2.348;2023-08-21T01:43:49;2.85;;;1.20;;
54813;SDS011;40714;51.378;-2.348;2023-08-21T01:46:15;3.38;;;1.60;;
54813;SDS011;40714;51.378;-2.348;2023-08-21T01:48:41;3.58;;;1.55;;
54813;SDS011;40714;51.378;-2.348;2023-08-21T01:51:07;3.38;;;1.30;;
54813;SDS011;40714;51.378;-2.348;2023-08-21T01:53:33;2.63;;;1.40;;
54813;SDS011;40714;51.378;-2.348;2023-08-21T01:55:59;2.05;;;1.45;;
54813;SDS011;40714;51.378;-2.348;2023-08-21T01:58:25;5.10;;;1.50;;
54813;SDS011;40714;51.378;-2.348;2023-08-21T02:00:51;4.22;;;1.50;;
54813;SDS011;40714;51.378;-2.348;2023-08-21T02:03:17;2.13;;;1.30;;
54813;SDS011;40714;51.378;-2.348;2023-08-21T02:05:43;2.72;;;1.55;;
54813;SDS011;40714;51.378;-2.348;2023-08-21T02:08:11;3.13;;;1.45;;
54813;SDS011;40714;51.378;-2.348;2023-08-21T02:10:37;1.80;;;1.15;;
54813;SDS011;40714;51.378;-2.348;2023-08-21T02:13:03;1.60;;;1.30;;
54813;SDS011;40714;51.378;-2.348;2023-08-21T02:15:29;1.63;;;1.35;;
54813;SDS011;40714;51.378;-2.348;2023-08-21T02:17:55;2.70;;;1.40;;
54813;SDS011;40714;51.378;-2.348;2023-08-21T02:20:21;3.42;;;1.40;;
54813;SDS011;40714;51.378;-2.348;2023-08-21T02:22:47;2.65;;;1.23;;
54813;SDS011;40714;51.378;-2.348;2023-08-21T02:25:13;1.55;;;1.10;;
54813;SDS011;40714;51.378;-2.348;2023-08-21T02:27:39;2.00;;;1.33;;
54813;SDS011;40714;51.378;-2.348;2023-08-21T02:30:06;2.28;;;1.25;;
54813;SDS011;40714;51.378;-2.348;2023-08-21T02:32:32;2.22;;;1.30;;
54813;SDS011;40714;51.378;-2.348;2023-08-21T02:34:58;1.67;;;1.08;;
54813;SDS011;40714;51.378;-2.348;2023-08-21T02:37:24;1.30;;;1.02;;
54813;SDS011;40714;51.378;-2.348;2023-08-21T02:39:50;3.08;;;1.27;;
54813;SDS011;40714;51.378;-2.348;2023-08-21T02:42:16;1.75;;;1.00;;
54813;SDS011;40714;51.378;-2.348;2023-08-21T02:44:42;1.50;;;0.93;;
54813;SDS011;40714;51.378;-2.348;2023-08-21T02:47:08;1.95;;;1.00;;
54813;SDS011;40714;51.378;-2.348;2023-08-21T02:49:34;1.63;;;1.17;;
54813;SDS011;40714;51.378;-2.348;2023-08-21T02:52:00;1.80;;;1.13;;
54813;SDS011;40714;51.378;-2.348;2023-08-21T02:54:26;1.33;;;1.05;;
54813;SDS011;40714;51.378;-2.348;2023-08-21T02:56:52;3.30;;;1.35;;
54813;SDS011;40714;51.378;-2.348;2023-08-21T02:59:18;1.33;;;1.10;;
54813;SDS011;40714;51.378;-2.348;2023-08-21T03:01:44;3.20;;;1.08;;
54813;SDS011;40714;51.378;-2.348;2023-08-21T03:04:10;3.75;;;0.95;;
54813;SDS011;40714;51.378;-2.348;2023-08-21T03:06:36;0.80;;;0.70;;
54813;SDS011;40714;51.378;-2.348;2023-08-21T03:09:02;1.52;;;0.90;;
54813;SDS011;40714;51.378;-2.348;2023-08-21T03:11:28;2.58;;;1.40;;
54813;SDS011;40714;51.378;-2.348;2023-08-21T03:13:54;1.90;;;1.15;;
54813;SDS011;40714;51.378;-2.348;2023-08-21T03:16:20;1.77;;;1.20;;
54813;SDS011;40714;51.378;-2.348;2023-08-21T03:18:56;1.23;;;1.00;;
54813;SDS011;40714;51.378;-2.348;2023-08-21T03:21:23;1.73;;;0.82;;
54813;SDS011;40714;51.378;-2.348;2023-08-21T03:23:50;1.58;;;0.90;;
54813;SDS011;40714;51.378;-2.348;2023-08-21T03:26:16;2.28;;;1.20;;
54813;SDS011;40714;51.378;-2.348;2023-08-21T03:28:42;4.45;;;1.20;;
54813;SDS011;40714;51.378;-2.348;2023-08-21T03:31:08;3.45;;;1.15;;
54813;SDS011;40714;51.378;-2.348;2023-08-21T03:33:34;1.83;;;1.23;;
54813;SDS011;40714;51.378;-2.348;2023-08-21T03:36:00;2.55;;;0.98;;
54813;SDS011;40714;51.378;-2.348;2023-08-21T03:38:26;1.73;;;0.95;;
54813;SDS011;40714;51.378;-2.348;2023-08-21T03:40:52;1.88;;;1.35;;
54813;SDS011;40714;51.378;-2.348;2023-08-21T03:43:18;1.40;;;1.05;;
54813;SDS011;40714;51.378;-2.348;2023-08-21T03:45:44;4.00;;;1.05;;
54813;SDS011;40714;51.378;-2.348;2023-08-21T03:48:10;3.53;;;1.17;;
54813;SDS011;40714;51.378;-2.348;2023-08-21T03:50:38;3.00;;;1.13;;
54813;SDS011;40714;51.378;-2.348;2023-08-21T03:53:04;3.88;;;1.42;;
54813;SDS011;40714;51.378;-2.348;2023-08-21T03:55:30;1.15;;;1.00;;
54813;SDS011;40714;51.378;-2.348;2023-08-21T03:57:56;1.92;;;1.63;;
54813;SDS011;40714;51.378;-2.348;2023-08-21T04:00:22;3.10;;;1.02;;
54813;SDS011;40714;51.378;-2.348;2023-08-21T04:02:48;5.85;;;1.20;;
54813;SDS011;40714;51.378;-2.348;2023-08-21T04:05:14;4.60;;;1.17;;
54813;SDS011;40714;51.378;-2.348;2023-08-21T04:07:41;5.25;;;1.73;;
54813;SDS011;40714;51.378;-2.348;2023-08-21T04:10:07;4.55;;;1.35;;
54813;SDS011;40714;51.378;-2.348;2023-08-21T04:12:33;5.32;;;1.10;;
54813;SDS011;40714;51.378;-2.348;2023-08-21T04:14:59;2.05;;;1.27;;
54813;SDS011;40714;51.378;-2.348;2023-08-21T04:17:25;2.08;;;1.00;;
54813;SDS011;40714;51.378;-2.348;2023-08-21T04:19:51;2.08;;;1.10;;
54813;SDS011;40714;51.378;-2.348;2023-08-21T04:22:17;1.95;;;1.02;;
54813;SDS011;40714;51.378;-2.348;2023-08-21T04:24:43;1.48;;;1.02;;
54813;SDS011;40714;51.378;-2.348;2023-08-21T04:27:09;1.30;;;1.02;;
54813;SDS011;40714;51.378;-2.348;2023-08-21T04:29:36;2.63;;;1.33;;
54813;SDS011;40714;51.378;-2.348;2023-08-21T04:32:02;1.45;;;0.80;;
54813;SDS011;40714;51.378;-2.348;2023-08-21T04:34:28;3.72;;;1.20;;
54813;SDS011;40714;51.378;-2.348;2023-08-21T04:36:54;1.20;;;0.70;;
54813;SDS011;40714;51.378;-2.348;2023-08-21T04:39:20;3.08;;;1.10;;
54813;SDS011;40714;51.378;-2.348;2023-08-21T04:41:46;2.50;;;0.95;;
54813;SDS011;40714;51.378;-2.348;2023-08-21T04:44:12;1.02;;;0.73;;
54813;SDS011;40714;51.378;-2.348;2023-08-21T04:46:38;2.15;;;0.60;;
54813;SDS011;40714;51.378;-2.348;2023-08-21T04:49:04;1.15;;;0.65;;
54813;SDS011;40714;51.378;-2.348;2023-08-21T04:51:30;0.90;;;0.80;;
54813;SDS011;40714;51.378;-2.348;2023-08-21T04:53:56;1.52;;;0.70;;
54813;SDS011;40714;51.378;-2.348;2023-08-21T04:56:24;3.33;;;0.90;;
54813;SDS011;40714;51.378;-2.348;2023-08-21T04:58:50;1.52;;;0.82;;
54813;SDS011;40714;51.378;-2.348;2023-08-21T05:01:16;2.35;;;1.00;;
54813;SDS011;40714;51.378;-2.348;2023-08-21T05:03:42;1.10;;;0.73;;
54813;SDS011;40714;51.378;-2.348;2023-08-21T05:06:08;1.70;;;0.70;;
54813;SDS011;40714;51.378;-2.348;2023-08-21T05:08:34;1.10;;;0.75;;
54813;SDS011;40714;51.378;-2.348;2023-08-21T05:11:00;2.80;;;1.00;;
54813;SDS011;40714;51.378;-2.348;2023-08-21T05:13:27;1.10;;;1.00;;
54813;SDS011;40714;51.378;-2.348;2023-08-21T05:15:53;1.50;;;0.70;;
54813;SDS011;40714;51.378;-2.348;2023-08-21T05:18:19;2.33;;;0.73;;
54813;SDS011;40714;51.378;-2.348;2023-08-21T05:20:46;1.42;;;0.80;;
54813;SDS011;40714;51.378;-2.348;2023-08-21T05:23:12;1.52;;;0.70;;
54813;SDS011;40714;51.378;-2.348;2023-08-21T05:25:38;3.53;;;1.17;;
54813;SDS011;40714;51.378;-2.348;2023-08-21T05:28:04;2.25;;;0.88;;
54813;SDS011;40714;51.378;-2.348;2023-08-21T05:30:30;3.38;;;0.85;;
54813;SDS011;40714;51.378;-2.348;2023-08-21T05:32:56;2.88;;;0.90;;
54813;SDS011;40714;51.378;-2.348;2023-08-21T05:35:22;1.17;;;0.80;;
54813;SDS011;40714;51.378;-2.348;2023-08-21T05:37:49;1.85;;;0.80;;
54813;SDS011;40714;51.378;-2.348;2023-08-21T05:40:15;2.83;;;1.23;;
54813;SDS011;40714;51.378;-2.348;2023-08-21T05:42:41;3.83;;;1.20;;
54813;SDS011;40714;51.378;-2.348;2023-08-21T05:45:07;2.08;;;1.00;;
54813;SDS011;40714;51.378;-2.348;2023-08-21T05:47:33;1.08;;;0.90;;
54813;SDS011;40714;51.378;-2.348;2023-08-21T05:49:59;1.50;;;0.70;;
54813;SDS011;40714;51.378;-2.348;2023-08-21T05:52:25;1.60;;;0.95;;
54813;SDS011;40714;51.378;-2.348;2023-08-21T05:54:51;1.70;;;0.95;;
54813;SDS011;40714;51.378;-2.348;2023-08-21T05:57:17;2.75;;;0.98;;
54813;SDS011;40714;51.378;-2.348;2023-08-21T05:59:44;2.72;;;0.90;;
54813;SDS011;40714;51.378;-2.348;2023-08-21T06:02:10;2.45;;;0.80;;
54813;SDS011;40714;51.378;-2.348;2023-08-21T06:04:40;0.93;;;0.80;;
54813;SDS011;40714;51.378;-2.348;2023-08-21T06:07:06;2.00;;;0.77;;
54813;SDS011;40714;51.378;-2.348;2023-08-21T06:09:32;2.30;;;0.73;;
54813;SDS011;40714;51.378;-2.348;2023-08-21T06:14:27;1.48;;;0.88;;
54813;SDS011;40714;51.378;-2.348;2023-08-21T06:17:00;3.28;;;1.10;;
54813;SDS011;40714;51.378;-2.348;2023-08-21T06:19:26;1.13;;;0.80;;
54813;SDS011;40714;51.378;-2.348;2023-08-21T06:21:53;3.17;;;1.00;;
54813;SDS011;40714;51.378;-2.348;2023-08-21T06:24:19;1.77;;;1.10;;
54813;SDS011;40714;51.378;-2.348;2023-08-21T06:26:45;1.85;;;0.93;;
54813;SDS011;40714;51.378;-2.348;2023-08-21T06:29:11;1.90;;;0.98;;
54813;SDS011;40714;51.378;-2.348;2023-08-21T06:31:38;2.35;;;0.95;;
54813;SDS011;40714;51.378;-2.348;2023-08-21T06:34:04;1.67;;;1.20;;
54813;SDS011;40714;51.378;-2.348;2023-08-21T06:36:30;1.88;;;1.10;;
54813;SDS011;40714;51.378;-2.348;2023-08-21T06:38:56;1.08;;;0.98;;
54813;SDS011;40714;51.378;-2.348;2023-08-21T06:41:22;2.08;;;1.20;;
54813;SDS011;40714;51.378;-2.348;2023-08-21T06:43:48;1.48;;;1.17;;
54813;SDS011;40714;51.378;-2.348;2023-08-21T06:46:14;1.13;;;0.93;;
54813;SDS011;40714;51.378;-2.348;2023-08-21T06:48:42;1.75;;;1.02;;
54813;SDS011;40714;51.378;-2.348;2023-08-21T06:51:09;1.67;;;1.23;;
54813;SDS011;40714;51.378;-2.348;2023-08-21T06:53:35;1.70;;;0.90;;
54813;SDS011;40714;51.378;-2.348;2023-08-21T06:56:01;3.17;;;1.00;;
54813;SDS011;40714;51.378;-2.348;2023-08-21T06:58:27;3.92;;;1.05;;
54813;SDS011;40714;51.378;-2.348;2023-08-21T07:00:54;3.28;;;0.93;;
54813;SDS011;40714;51.378;-2.348;2023-08-21T07:03:20;2.92;;;0.90;;
54813;SDS011;40714;51.378;-2.348;2023-08-21T07:05:49;1.90;;;1.23;;
54813;SDS011;40714;51.378;-2.348;2023-08-21T07:08:19;2.85;;;1.30;;
54813;SDS011;40714;51.378;-2.348;2023-08-21T07:10:45;1.48;;;1.30;;
54813;SDS011;40714;51.378;-2.348;2023-08-21T07:13:11;1.65;;;1.00;;
54813;SDS011;40714;51.378;-2.348;2023-08-21T07:15:37;2.63;;;1.10;;
54813;SDS011;40714;51.378;-2.348;2023-08-21T07:18:03;1.48;;;1.20;;
54813;SDS011;40714;51.378;-2.348;2023-08-21T07:20:29;1.90;;;1.23;;
54813;SDS011;40714;51.378;-2.348;2023-08-21T07:22:55;1.95;;;0.90;;
54813;SDS011;40714;51.378;-2.348;2023-08-21T07:25:21;2.00;;;1.10;;
54813;SDS011;40714;51.378;-2.348;2023-08-21T07:27:47;1.23;;;0.70;;
54813;SDS011;40714;51.378;-2.348;2023-08-21T07:30:16;3.97;;;1.35;;
54813;SDS011;40714;51.378;-2.348;2023-08-21T07:32:42;1.58;;;0.90;;
54813;SDS011;40714;51.378;-2.348;2023-08-21T07:35:08;3.50;;;1.27;;
54813;SDS011;40714;51.378;-2.348;2023-08-21T07:37:35;1.67;;;1.02;;
54813;SDS011;40714;51.378;-2.348;2023-08-21T07:40:01;1.70;;;1.00;;
54813;SDS011;40714;51.378;-2.348;2023-08-21T07:42:28;1.80;;;1.02;;
54813;SDS011;40714;51.378;-2.348;2023-08-21T07:44:54;4.53;;;1.40;;
54813;SDS011;40714;51.378;-2.348;2023-08-21T07:47:20;1.25;;;1.02;;
54813;SDS011;40714;51.378;-2.348;2023-08-21T07:49:46;2.28;;;1.10;;
54813;SDS011;40714;51.378;-2.348;2023-08-21T07:52:12;2.13;;;1.13;;
54813;SDS011;40714;51.378;-2.348;2023-08-21T07:54:38;1.65;;;1.10;;
54813;SDS011;40714;51.378;-2.348;2023-08-21T07:57:04;2.53;;;0.85;;
54813;SDS011;40714;51.378;-2.348;2023-08-21T07:59:30;1.90;;;0.95;;
54813;SDS011;40714;51.378;-2.348;2023-08-21T08:01:56;4.10;;;0.90;;
54813;SDS011;40714;51.378;-2.348;2023-08-21T08:04:22;4.43;;;0.80;;
54813;SDS011;40714;51.378;-2.348;2023-08-21T08:06:48;1.95;;;1.13;;
54813;SDS011;40714;51.378;-2.348;2023-08-21T08:09:14;1.75;;;1.20;;
54813;SDS011;40714;51.378;-2.348;2023-08-21T08:11:40;2.15;;;1.30;;
54813;SDS011;40714;51.378;-2.348;2023-08-21T08:14:06;3.38;;;1.00;;
54813;SDS011;40714;51.378;-2.348;2023-08-21T08:16:32;2.70;;;1.05;;
54813;SDS011;40714;51.378;-2.348;2023-08-21T08:18:58;2.22;;;0.80;;
54813;SDS011;40714;51.378;-2.348;2023-08-21T08:21:24;1.13;;;0.70;;
54813;SDS011;40714;51.378;-2.348;2023-08-21T08:23:50;1.00;;;0.70;;
54813;SDS011;40714;51.378;-2.348;2023-08-21T08:26:16;2.45;;;1.00;;
54813;SDS011;40714;51.378;-2.348;2023-08-21T08:28:42;1.73;;;0.80;;
54813;SDS011;40714;51.378;-2.348;2023-08-21T08:31:17;3.42;;;1.35;;
54813;SDS011;40714;51.378;-2.348;2023-08-21T08:33:43;2.10;;;0.80;;
54813;SDS011;40714;51.378;-2.348;2023-08-21T08:36:11;2.20;;;1.10;;
54813;SDS011;40714;51.378;-2.348;2023-08-21T08:38:37;1.88;;;0.85;;
54813;SDS011;40714;51.378;-2.348;2023-08-21T08:41:05;1.30;;;0.75;;
54813;SDS011;40714;51.378;-2.348;2023-08-21T08:43:32;3.15;;;0.82;;
54813;SDS011;40714;51.378;-2.348;2023-08-21T08:46:02;3.92;;;0.85;;
54813;SDS011;40714;51.378;-2.348;2023-08-21T08:48:29;2.28;;;0.98;;
54813;SDS011;40714;51.378;-2.348;2023-08-21T08:50:55;3.58;;;0.70;;
54813;SDS011;40714;51.378;-2.348;2023-08-21T08:53:21;2.05;;;0.65;;
54813;SDS011;40714;51.378;-2.348;2023-08-21T08:55:48;2.28;;;0.90;;
54813;SDS011;40714;51.378;-2.348;2023-08-21T08:58:14;1.33;;;0.75;;
54813;SDS011;40714;51.378;-2.348;2023-08-21T09:00:40;1.33;;;0.70;;
54813;SDS011;40714;51.378;-2.348;2023-08-21T09:03:06;3.90;;;0.60;;
54813;SDS011;40714;51.378;-2.348;2023-08-21T09:05:33;2.28;;;0.80;;
54813;SDS011;40714;51.378;-2.348;2023-08-21T09:10:32;1.85;;;0.90;;
54813;SDS011;40714;51.378;-2.348;2023-08-21T09:12:58;0.63;;;0.50;;
54813;SDS011;40714;51.378;-2.348;2023-08-21T09:15:30;2.38;;;0.88;;
54813;SDS011;40714;51.378;-2.348;2023-08-21T09:17:56;1.45;;;0.63;;
54813;SDS011;40714;51.378;-2.348;2023-08-21T09:20:22;1.60;;;0.55;;
54813;SDS011;40714;51.378;-2.348;2023-08-21T09:22:54;1.35;;;0.68;;
54813;SDS011;40714;51.378;-2.348;2023-08-21T09:25:21;0.52;;;0.52;;
54813;SDS011;40714;51.378;-2.348;2023-08-21T09:27:49;2.15;;;0.63;;
54813;SDS011;40714;51.378;-2.348;2023-08-21T09:30:17;2.53;;;0.60;;
54813;SDS011;40714;51.378;-2.348;2023-08-21T09:32:56;1.27;;;0.70;;
54813;SDS011;40714;51.378;-2.348;2023-08-21T09:35:24;1.90;;;0.70;;
54813;SDS011;40714;51.378;-2.348;2023-08-21T09:37:51;1.20;;;0.80;;
54813;SDS011;40714;51.378;-2.348;2023-08-21T09:40:18;3.17;;;0.70;;
54813;SDS011;40714;51.378;-2.348;2023-08-21T09:42:44;2.00;;;0.50;;
54813;SDS011;40714;51.378;-2.348;2023-08-21T09:45:10;0.60;;;0.40;;
54813;SDS011;40714;51.378;-2.348;2023-08-21T09:47:37;1.67;;;0.80;;
54813;SDS011;40714;51.378;-2.348;2023-08-21T09:50:04;1.20;;;0.57;;
54813;SDS011;40714;51.378;-2.348;2023-08-21T09:52:30;1.65;;;0.60;;
54813;SDS011;40714;51.378;-2.348;2023-08-21T09:54:57;2.38;;;0.50;;
54813;SDS011;40714;51.378;-2.348;2023-08-21T09:57:23;0.88;;;0.60;;
54813;SDS011;40714;51.378;-2.348;2023-08-21T09:59:53;1.85;;;0.60;;
54813;SDS011;40714;51.378;-2.348;2023-08-21T10:02:20;2.03;;;0.73;;
54813;SDS011;40714;51.378;-2.348;2023-08-21T10:04:46;1.30;;;0.50;;
54813;SDS011;40714;51.378;-2.348;2023-08-21T10:07:15;1.00;;;0.70;;
54813;SDS011;40714;51.378;-2.348;2023-08-21T10:09:41;0.47;;;0.43;;
54813;SDS011;40714;51.378;-2.348;2023-08-21T10:12:10;1.77;;;0.60;;
54813;SDS011;40714;51.378;-2.348;2023-08-21T10:14:37;1.52;;;0.68;;
54813;SDS011;40714;51.378;-2.348;2023-08-21T10:17:03;1.33;;;0.50;;
54813;SDS011;40714;51.378;-2.348;2023-08-21T10:19:33;0.68;;;0.50;;
54813;SDS011;40714;51.378;-2.348;2023-08-21T10:21:59;1.52;;;0.60;;
54813;SDS011;40714;51.378;-2.348;2023-08-21T10:24:33;0.95;;;0.45;;
54813;SDS011;40714;51.378;-2.348;2023-08-21T10:26:59;1.67;;;0.50;;
54813;SDS011;40714;51.378;-2.348;2023-08-21T10:29:26;2.28;;;0.70;;
54813;SDS011;40714;51.378;-2.348;2023-08-21T10:32:01;1.65;;;0.57;;
54813;SDS011;40714;51.378;-2.348;2023-08-21T10:34:33;0.82;;;0.70;;
54813;SDS011;40714;51.378;-2.348;2023-08-21T10:39:26;0.95;;;0.45;;
54813;SDS011;40714;51.378;-2.348;2023-08-21T10:41:58;3.15;;;0.82;;
54813;SDS011;40714;51.378;-2.348;2023-08-21T10:49:56;0.50;;;0.50;;
54813;SDS011;40714;51.378;-2.348;2023-08-21T10:52:23;1.02;;;0.60;;
54813;SDS011;40714;51.378;-2.348;2023-08-21T10:54:51;1.70;;;0.73;;
54813;SDS011;40714;51.378;-2.348;2023-08-21T10:57:17;3.33;;;0.85;;
54813;SDS011;40714;51.378;-2.348;2023-08-21T10:59:59;1.40;;;0.60;;
54813;SDS011;40714;51.378;-2.348;2023-08-21T11:02:29;1.30;;;0.57;;
54813;SDS011;40714;51.378;-2.348;2023-08-21T11:04:55;1.35;;;0.80;;
54813;SDS011;40714;51.378;-2.348;2023-08-21T11:07:22;0.77;;;0.60;;
54813;SDS011;40714;51.378;-2.348;2023-08-21T11:09:48;1.35;;;0.68;;
54813;SDS011;40714;51.378;-2.348;2023-08-21T11:12:15;1.00;;;0.70;;
54813;SDS011;40714;51.378;-2.348;2023-08-21T11:14:41;1.23;;;0.70;;
54813;SDS011;40714;51.378;-2.348;2023-08-21T11:17:08;3.20;;;0.90;;
54813;SDS011;40714;51.378;-2.348;2023-08-21T11:19:35;1.88;;;0.88;;
54813;SDS011;40714;51.378;-2.348;2023-08-21T11:22:01;2.88;;;0.80;;
54813;SDS011;40714;51.378;-2.348;2023-08-21T11:29:29;1.55;;;0.70;;
54813;SDS011;40714;51.378;-2.348;2023-08-21T11:31:55;1.95;;;0.80;;
54813;SDS011;40714;51.378;-2.348;2023-08-21T11:34:21;2.08;;;0.80;;
54813;SDS011;40714;51.378;-2.348;2023-08-21T11:36:47;1.23;;;0.93;;
54813;SDS011;40714;51.378;-2.348;2023-08-21T11:39:14;4.28;;;0.80;;
54813;SDS011;40714;51.378;-2.348;2023-08-21T11:41:52;0.80;;;0.60;;
54813;SDS011;40714;51.378;-2.348;2023-08-21T11:44:18;1.70;;;1.52;;
54813;SDS011;40714;51.378;-2.348;2023-08-21T11:46:45;2.42;;;0.70;;
54813;SDS011;40714;51.378;-2.348;2023-08-21T11:49:11;0.75;;;0.50;;
54813;SDS011;40714;51.378;-2.348;2023-08-21T11:51:38;1.17;;;0.93;;
54813;SDS011;40714;51.378;-2.348;2023-08-21T11:54:04;1.10;;;0.75;;
54813;SDS011;40714;51.378;-2.348;2023-08-21T11:56:30;0.80;;;0.52;;
54813;SDS011;40714;51.378;-2.348;2023-08-21T11:58:56;0.98;;;0.80;;
54813;SDS011;40714;51.378;-2.348;2023-08-21T12:01:24;1.75;;;0.85;;
54813;SDS011;40714;51.378;-2.348;2023-08-21T12:03:50;0.95;;;0.88;;
54813;SDS011;40714;51.378;-2.348;2023-08-21T12:06:19;1.75;;;0.70;;
54813;SDS011;40714;51.378;-2.348;2023-08-21T12:08:45;4.30;;;1.13;;
54813;SDS011;40714;51.378;-2.348;2023-08-21T12:11:11;1.75;;;1.10;;
54813;SDS011;40714;51.378;-2.348;2023-08-21T12:13:37;2.60;;;0.90;;
54813;SDS011;40714;51.378;-2.348;2023-08-21T12:16:04;2.30;;;1.00;;
54813;SDS011;40714;51.378;-2.348;2023-08-21T12:18:30;2.72;;;0.88;;
54813;SDS011;40714;51.378;-2.348;2023-08-21T12:20:56;1.60;;;0.75;;
54813;SDS011;40714;51.378;-2.348;2023-08-21T12:23:22;2.97;;;1.23;;
54813;SDS011;40714;51.378;-2.348;2023-08-21T12:25:48;1.15;;;1.05;;
54813;SDS011;40714;51.378;-2.348;2023-08-21T12:28:14;1.35;;;0.98;;
54813;SDS011;40714;51.378;-2.348;2023-08-21T12:30:40;1.05;;;0.90;;
54813;SDS011;40714;51.378;-2.348;2023-08-21T12:33:06;1.67;;;0.80;;
54813;SDS011;40714;51.378;-2.348;2023-08-21T12:35:32;1.25;;;0.85;;
54813;SDS011;40714;51.378;-2.348;2023-08-21T12:37:58;0.93;;;0.80;;
54813;SDS011;40714;51.378;-2.348;2023-08-21T12:40:30;0.90;;;0.70;;
54813;SDS011;40714;51.378;-2.348;2023-08-21T12:43:03;2.05;;;1.00;;
54813;SDS011;40714;51.378;-2.348;2023-08-21T12:45:29;2.33;;;0.93;;
54813;SDS011;40714;51.378;-2.348;2023-08-21T12:47:55;1.13;;;0.73;;
54813;SDS011;40714;51.378;-2.348;2023-08-21T12:50:21;2.50;;;0.80;;
54813;SDS011;40714;51.378;-2.348;2023-08-21T12:52:47;1.30;;;0.73;;
54813;SDS011;40714;51.378;-2.348;2023-08-21T12:55:13;1.55;;;0.70;;
54813;SDS011;40714;51.378;-2.348;2023-08-21T12:57:39;2.13;;;0.90;;
54813;SDS011;40714;51.378;-2.348;2023-08-21T13:00:05;2.67;;;1.17;;
54813;SDS011;40714;51.378;-2.348;2023-08-21T13:02:31;1.23;;;0.80;;
54813;SDS011;40714;51.378;-2.348;2023-08-21T13:04:57;1.08;;;0.98;;
54813;SDS011;40714;51.378;-2.348;2023-08-21T13:07:23;1.42;;;0.75;;
54813;SDS011;40714;51.378;-2.348;2023-08-21T13:09:49;1.08;;;0.65;;
54813;SDS011;40714;51.378;-2.348;2023-08-21T13:12:15;2.75;;;0.70;;
54813;SDS011;40714;51.378;-2.348;2023-08-21T13:14:41;1.23;;;0.70;;
54813;SDS011;40714;51.378;-2.348;2023-08-21T13:17:07;1.13;;;0.75;;
54813;SDS011;40714;51.378;-2.348;2023-08-21T13:19:33;1.38;;;0.70;;
54813;SDS011;40714;51.378;-2.348;2023-08-21T13:21:59;0.70;;;0.70;;
54813;SDS011;40714;51.378;-2.348;2023-08-21T13:24:25;1.60;;;0.98;;
54813;SDS011;40714;51.378;-2.348;2023-08-21T13:26:53;1.27;;;0.55;;
54813;SDS011;40714;51.378;-2.348;2023-08-21T13:29:19;0.43;;;0.40;;
54813;SDS011;40714;51.378;-2.348;2023-08-21T13:31:45;1.33;;;0.60;;
54813;SDS011;40714;51.378;-2.348;2023-08-21T13:34:11;1.30;;;0.60;;
54813;SDS011;40714;51.378;-2.348;2023-08-21T13:36:37;0.70;;;0.60;;
54813;SDS011;40714;51.378;-2.348;2023-08-21T13:39:03;2.22;;;0.70;;
54813;SDS011;40714;51.378;-2.348;2023-08-21T13:41:31;0.98;;;0.60;;
54813;SDS011;40714;51.378;-2.348;2023-08-21T13:43:58;1.45;;;0.65;;
54813;SDS011;40714;51.378;-2.348;2023-08-21T13:46:24;0.70;;;0.50;;
54813;SDS011;40714;51.378;-2.348;2023-08-21T13:48:50;1.75;;;0.40;;
54813;SDS011;40714;51.378;-2.348;2023-08-21T13:51:16;0.82;;;0.43;;
54813;SDS011;40714;51.378;-2.348;2023-08-21T13:53:42;0.65;;;0.60;;
54813;SDS011;40714;51.378;-2.348;2023-08-21T13:56:08;0.40;;;0.40;;
54813;SDS011;40714;51.378;-2.348;2023-08-21T13:58:34;1.90;;;0.60;;
54813;SDS011;40714;51.378;-2.348;2023-08-21T14:01:00;1.05;;;0.60;;
54813;SDS011;40714;51.378;-2.348;2023-08-21T14:03:26;0.55;;;0.40;;
54813;SDS011;40714;51.378;-2.348;2023-08-21T14:05:52;2.10;;;0.85;;
54813;SDS011;40714;51.378;-2.348;2023-08-21T14:08:18;0.65;;;0.52;;
54813;SDS011;40714;51.378;-2.348;2023-08-21T14:10:44;1.73;;;0.70;;
54813;SDS011;40714;51.378;-2.348;2023-08-21T14:13:10;0.90;;;0.70;;
54813;SDS011;40714;51.378;-2.348;2023-08-21T14:15:37;0.38;;;0.30;;
54813;SDS011;40714;51.378;-2.348;2023-08-21T14:18:03;0.82;;;0.55;;
54813;SDS011;40714;51.378;-2.348;2023-08-21T14:20:30;1.02;;;0.52;;
54813;SDS011;40714;51.378;-2.348;2023-08-21T14:22:56;2.13;;;0.60;;
54813;SDS011;40714;51.378;-2.348;2023-08-21T14:25:22;1.65;;;0.60;;
54813;SDS011;40714;51.378;-2.348;2023-08-21T14:27:48;1.00;;;0.57;;
54813;SDS011;40714;51.378;-2.348;2023-08-21T14:30:14;1.75;;;0.70;;
54813;SDS011;40714;51.378;-2.348;2023-08-21T14:32:40;1.30;;;0.50;;
54813;SDS011;40714;51.378;-2.348;2023-08-21T14:35:07;1.10;;;0.63;;
54813;SDS011;40714;51.378;-2.348;2023-08-21T14:37:33;1.70;;;0.73;;
54813;SDS011;40714;51.378;-2.348;2023-08-21T14:39:59;1.63;;;0.52;;
54813;SDS011;40714;51.378;-2.348;2023-08-21T14:42:25;3.22;;;0.80;;
54813;SDS011;40714;51.378;-2.348;2023-08-21T14:44:51;1.30;;;0.60;;
54813;SDS011;40714;51.378;-2.348;2023-08-21T14:47:18;1.13;;;0.68;;
54813;SDS011;40714;51.378;-2.348;2023-08-21T14:49:44;1.33;;;0.50;;
54813;SDS011;40714;51.378;-2.348;2023-08-21T14:52:10;1.40;;;0.80;;